Haydock Park, United Kingdom
Current Conditions -  °F | °C
As of 4:50 PM on Thursday 18 Dec 2014 (Local Time) from EGGP Reporting Station
Rain Showers Rain Showers  
Wind Chill: 13°   Ceiling: Unl
Heat Index: 13°   Visibility: 6mi
Dew Point: 10°   Wind: 20mph
Humidity: 82%   Direction: 230°SW
Pressure: 29.59"   Gusts: NA
Location:  53.47°N, 2.62°W
Report Text: EGGP 181650Z 23017KT 9999 -SHRA FEW020 SCT037 13/10 Q1002
Loading
Personal Weather Stations






























Interactive Weather Map New forecast layout! Learn more

10-Day Weather Forecast

Advertisements
Track Severe Weather on mobile